Time;durP1;ratioP1;P1;durP2;ratioP2;P2;SDS_P1;SDS_P2;PMS_P1;PMS_P2;Temp;Humidity;BMP_temperature;BMP_pressure;BME280_temperature;BME280_humidity;BME280_pressure;Samples;Min_cycle;Max_cycle;Signal;HPM_P1;HPM_P2
2023/12/28 00:00:41;;;;;;;10.25;9.25;;;9.70;99.90;;;;;;5145473;27;20042;-81
2023/12/28 00:03:07;;;;;;;10.93;10.02;;;9.70;99.90;;;;;;5130824;27;20077;-80
2023/12/28 00:05:32;;;;;;;11.10;9.60;;;9.70;99.90;;;;;;5150527;27;20042;-80
2023/12/28 00:07:58;;;;;;;11.77;10.68;;;9.70;99.90;;;;;;5133840;27;20050;-80
2023/12/28 00:10:25;;;;;;;12.32;11.18;;;9.70;99.90;;;;;;5139886;27;20123;-81
2023/12/28 00:12:50;;;;;;;10.43;9.27;;;9.70;99.90;;;;;;5151415;27;20070;-80
2023/12/28 00:15:16;;;;;;;11.32;10.00;;;9.70;99.90;;;;;;5129480;27;20454;-80
2023/12/28 00:17:42;;;;;;;14.70;13.32;;;9.70;99.90;;;;;;5109378;27;20050;-81
2023/12/28 00:20:08;;;;;;;10.80;9.60;;;9.70;99.90;;;;;;5125122;27;20090;-81
2023/12/28 00:22:33;;;;;;;10.57;9.57;;;9.70;99.90;;;;;;5121443;27;20050;-81
2023/12/28 00:24:59;;;;;;;10.88;9.50;;;9.80;99.90;;;;;;5106890;27;20084;-81
2023/12/28 00:27:25;;;;;;;12.55;11.02;;;9.70;99.90;;;;;;5123907;27;20038;-81
2023/12/28 00:29:50;;;;;;;10.73;9.23;;;9.70;99.90;;;;;;5105289;27;21456;-80
2023/12/28 00:32:16;;;;;;;9.35;8.45;;;9.80;99.90;;;;;;5120389;27;20058;-80
2023/12/28 00:34:41;;;;;;;11.18;10.07;;;9.70;99.90;;;;;;5106157;27;20559;-81
2023/12/28 00:37:07;;;;;;;11.65;9.50;;;9.70;99.90;;;;;;5120700;27;20041;-81
2023/12/28 00:39:34;;;;;;;10.32;9.35;;;9.70;99.90;;;;;;5124528;27;20039;-81
2023/12/28 00:42:00;;;;;;;10.95;9.75;;;9.80;99.90;;;;;;5132585;27;20505;-81
2023/12/28 00:44:25;;;;;;;10.80;9.75;;;9.70;99.90;;;;;;5138024;27;20039;-80
2023/12/28 00:46:51;;;;;;;13.60;10.50;;;9.70;99.90;;;;;;5101668;27;20058;-80
2023/12/28 00:49:16;;;;;;;11.32;9.88;;;9.70;99.90;;;;;;5101249;27;20865;-81
2023/12/28 00:51:42;;;;;;;12.65;10.05;;;9.70;99.90;;;;;;5119566;27;20039;-81
2023/12/28 00:54:08;;;;;;;12.55;9.82;;;9.70;99.90;;;;;;5115246;27;20042;-80
2023/12/28 00:56:33;;;;;;;11.07;9.82;;;9.70;99.90;;;;;;5099337;27;20058;-81
2023/12/28 00:59:01;;;;;;;10.77;9.73;;;9.80;99.90;;;;;;5119605;27;20039;-80
2023/12/28 01:01:27;;;;;;;12.90;9.43;;;9.80;99.90;;;;;;5100562;27;20452;-80
2023/12/28 01:03:52;;;;;;;13.00;10.13;;;9.80;99.90;;;;;;5108974;27;20026;-81
2023/12/28 01:06:18;;;;;;;52.60;40.50;;;9.80;99.90;;;;;;5121821;27;20095;-80
2023/12/28 01:08:44;;;;;;;12.70;9.70;;;9.90;99.90;;;;;;5121708;27;20035;-80
2023/12/28 01:11:11;;;;;;;10.70;9.48;;;9.80;99.90;;;;;;5113741;27;20041;-80
2023/12/28 01:13:37;;;;;;;10.35;9.13;;;9.80;99.90;;;;;;5099182;27;20578;-81
2023/12/28 01:16:04;;;;;;;15.20;9.70;;;9.80;99.90;;;;;;5106509;27;20030;-81
2023/12/28 01:18:29;;;;;;;13.63;9.45;;;9.80;99.90;;;;;;5121475;27;20045;-81
2023/12/28 01:20:55;;;;;;;12.30;9.82;;;9.70;99.90;;;;;;5122919;27;20035;-80
2023/12/28 01:23:20;;;;;;;13.95;9.68;;;9.70;99.90;;;;;;5121483;27;20103;-81
2023/12/28 01:25:46;;;;;;;13.85;9.57;;;9.60;99.90;;;;;;5103945;27;20038;-80
2023/12/28 01:28:12;;;;;;;13.05;9.85;;;9.50;99.90;;;;;;5121670;27;20027;-79
2023/12/28 01:30:38;;;;;;;11.95;9.52;;;9.50;99.90;;;;;;5127046;27;20045;-80
2023/12/28 01:33:04;;;;;;;15.02;10.38;;;9.50;99.90;;;;;;5101574;27;20031;-80
2023/12/28 01:35:29;;;;;;;15.82;10.82;;;9.50;99.90;;;;;;5108138;27;20035;-81
2023/12/28 01:37:55;;;;;;;12.15;9.68;;;9.50;99.90;;;;;;5102674;27;20095;-80
2023/12/28 01:40:21;;;;;;;14.50;10.93;;;9.40;99.90;;;;;;5119647;27;20047;-80
2023/12/28 01:42:46;;;;;;;14.15;10.40;;;9.40;99.90;;;;;;5121302;27;20047;-80
2023/12/28 01:45:12;;;;;;;13.75;10.30;;;9.50;99.90;;;;;;5103572;27;20133;-80
2023/12/28 01:47:38;;;;;;;12.00;9.68;;;9.50;99.90;;;;;;5121234;27;20039;-80
2023/12/28 01:50:06;;;;;;;14.48;9.48;;;9.50;99.90;;;;;;5109720;27;20038;-81
2023/12/28 01:52:32;;;;;;;14.02;10.45;;;9.40;99.90;;;;;;5122656;27;20035;-80
2023/12/28 01:54:57;;;;;;;11.20;9.90;;;9.40;99.90;;;;;;5127453;27;20118;-80
2023/12/28 01:57:24;;;;;;;13.10;10.13;;;9.40;99.90;;;;;;5135453;27;20057;-81
2023/12/28 01:59:50;;;;;;;15.70;10.57;;;9.40;99.90;;;;;;5105846;27;20039;-80
2023/12/28 02:02:16;;;;;;;16.70;10.18;;;9.30;99.90;;;;;;5105708;27;20100;-79
2023/12/28 02:04:42;;;;;;;14.23;10.40;;;9.30;99.90;;;;;;5097472;27;20130;-80
2023/12/28 02:07:08;;;;;;;15.05;10.18;;;9.20;99.90;;;;;;5106110;27;20039;-81
2023/12/28 02:09:34;;;;;;;15.10;9.75;;;9.20;99.90;;;;;;5109559;27;20035;-81
2023/12/28 02:12:00;;;;;;;15.82;10.65;;;9.20;99.90;;;;;;5105956;27;20052;-80
2023/12/28 02:14:25;;;;;;;14.00;9.77;;;9.20;99.90;;;;;;5129316;27;20083;-80
2023/12/28 02:16:59;;;;;;;11.10;9.50;;;9.20;99.90;;;;;;5126955;27;20129;-80
2023/12/28 02:19:40;;;;;;;15.00;9.20;;;9.20;99.90;;;;;;5111246;27;20126;-81
2023/12/28 02:22:07;;;;;;;12.80;9.82;;;9.20;99.90;;;;;;5109417;27;20082;-81
2023/12/28 02:24:53;;;;;;;17.75;9.57;;;9.20;99.90;;;;;;5090621;27;20043;-80
2023/12/28 02:27:19;;;;;;;12.75;10.15;;;9.20;99.90;;;;;;5116019;27;20031;-81
2023/12/28 02:29:44;;;;;;;15.48;10.02;;;9.20;99.90;;;;;;5108139;27;20039;-80
2023/12/28 02:32:12;;;;;;;14.55;9.95;;;9.20;99.90;;;;;;5096758;28;20484;-80
2023/12/28 02:34:42;;;;;;;14.25;10.00;;;9.10;99.90;;;;;;5112410;27;20043;-81
2023/12/28 02:37:10;;;;;;;12.32;9.13;;;9.10;99.90;;;;;;5128499;27;20039;-80
2023/12/28 02:39:37;;;;;;;14.25;9.45;;;9.20;99.90;;;;;;5102112;27;20039;-81
2023/12/28 02:42:03;;;;;;;13.90;9.05;;;9.30;99.90;;;;;;5101049;27;20039;-80
2023/12/28 02:44:28;;;;;;;14.60;9.68;;;9.30;99.90;;;;;;5100054;27;20084;-81
2023/12/28 02:46:54;;;;;;;13.40;8.98;;;9.40;99.90;;;;;;5114814;27;20043;-80
2023/12/28 02:49:20;;;;;;;13.88;9.88;;;9.50;99.90;;;;;;5115349;27;20049;-80
2023/12/28 02:51:45;;;;;;;12.30;9.13;;;9.50;99.90;;;;;;5136831;27;20046;-80
2023/12/28 02:54:11;;;;;;;13.85;9.65;;;9.50;99.90;;;;;;5114953;27;20410;-81
2023/12/28 02:56:39;;;;;;;11.70;8.98;;;9.60;99.90;;;;;;5128565;27;20062;-80
2023/12/28 02:59:04;;;;;;;15.50;10.48;;;9.70;99.90;;;;;;5100628;27;20095;-80
2023/12/28 03:01:30;;;;;;;12.15;10.20;;;9.70;99.90;;;;;;5104941;27;20039;-80
2023/12/28 03:03:55;;;;;;;11.60;9.07;;;9.70;99.90;;;;;;5126965;27;20041;-81
2023/12/28 03:06:21;;;;;;;14.15;9.65;;;9.80;99.90;;;;;;5121673;27;20038;-81
2023/12/28 03:08:47;;;;;;;13.95;9.88;;;9.90;99.90;;;;;;5114983;27;20056;-80
2023/12/28 03:11:12;;;;;;;11.85;9.68;;;9.90;99.90;;;;;;5134472;27;20035;-80
2023/12/28 03:13:38;;;;;;;13.45;9.05;;;9.90;99.90;;;;;;5097697;27;20047;-80
2023/12/28 03:16:04;;;;;;;12.80;10.32;;;9.90;99.90;;;;;;5116820;27;20469;-80
2023/12/28 03:18:30;;;;;;;12.48;9.25;;;9.90;99.90;;;;;;5133873;27;20054;-80
2023/12/28 03:20:55;;;;;;;15.65;9.20;;;9.90;99.90;;;;;;5125388;27;20451;-80
2023/12/28 03:23:21;;;;;;;25.80;23.33;;;9.90;99.90;;;;;;5095033;27;20047;-80
2023/12/28 03:25:46;;;;;;;14.70;9.40;;;10.00;99.90;;;;;;5136425;27;20123;-80
2023/12/28 03:28:12;;;;;;;14.57;9.05;;;10.00;99.90;;;;;;5110465;28;20600;-80
2023/12/28 03:30:37;;;;;;;14.38;9.82;;;10.10;99.90;;;;;;5093617;28;20035;-80
2023/12/28 03:33:03;;;;;;;14.38;9.40;;;10.10;99.90;;;;;;5111680;27;20495;-80
2023/12/28 03:35:29;;;;;;;13.75;10.30;;;10.10;99.90;;;;;;5122963;27;20062;-80
2023/12/28 03:37:54;;;;;;;10.32;8.90;;;10.10;99.90;;;;;;5115668;27;20478;-80
2023/12/28 03:40:20;;;;;;;11.80;8.75;;;10.10;99.90;;;;;;5096583;27;20108;-81
2023/12/28 03:42:45;;;;;;;11.57;10.30;;;10.10;99.90;;;;;;5112506;28;20047;-80
2023/12/28 03:45:11;;;;;;;14.65;8.65;;;10.20;99.90;;;;;;5097550;27;20046;-80
2023/12/28 03:47:37;;;;;;;14.85;8.63;;;10.20;99.90;;;;;;5111913;27;20043;-81
2023/12/28 03:50:03;;;;;;;12.55;8.35;;;10.20;99.90;;;;;;5105513;27;20106;-79
2023/12/28 03:52:32;;;;;;;12.32;9.43;;;10.20;99.90;;;;;;5094995;27;20042;-79
2023/12/28 03:54:57;;;;;;;10.75;8.65;;;10.20;99.90;;;;;;5119658;27;20030;-81
2023/12/28 03:57:23;;;;;;;10.55;8.60;;;10.20;99.90;;;;;;5130660;27;20045;-80
2023/12/28 03:59:49;;;;;;;13.85;9.30;;;10.30;99.90;;;;;;5122751;27;20138;-80
2023/12/28 04:02:14;;;;;;;12.02;8.75;;;10.30;99.90;;;;;;5112296;28;20121;-79
2023/12/28 04:04:40;;;;;;;13.82;8.77;;;10.30;99.90;;;;;;5109903;28;20088;-79
2023/12/28 04:07:08;;;;;;;11.75;9.57;;;10.30;99.90;;;;;;5142826;27;20760;-80
2023/12/28 04:09:34;;;;;;;13.27;9.05;;;10.30;99.90;;;;;;5111969;27;20096;-81
2023/12/28 04:12:00;;;;;;;12.25;8.75;;;10.40;99.90;;;;;;5115312;27;20043;-79
2023/12/28 04:14:26;;;;;;;11.27;8.70;;;10.40;99.90;;;;;;5095244;27;20122;-80
2023/12/28 04:16:51;;;;;;;14.43;11.00;;;10.40;99.90;;;;;;5111258;28;20822;-80
2023/12/28 04:19:17;;;;;;;15.65;9.20;;;10.40;99.90;;;;;;5093986;27;20035;-80
2023/12/28 04:21:45;;;;;;;12.85;8.88;;;10.50;99.90;;;;;;5120606;27;20047;-80
2023/12/28 04:24:11;;;;;;;13.10;8.52;;;10.50;99.90;;;;;;5096504;27;20392;-79
2023/12/28 04:26:37;;;;;;;12.02;10.73;;;10.50;99.90;;;;;;5092982;28;20046;-79
2023/12/28 04:29:02;;;;;;;10.00;8.50;;;10.50;99.90;;;;;;5092913;27;20046;-80
2023/12/28 04:31:28;;;;;;;14.15;8.45;;;10.50;99.90;;;;;;5119549;27;20035;-80
2023/12/28 04:33:54;;;;;;;11.25;8.55;;;10.50;99.90;;;;;;5121360;27;20042;-80
2023/12/28 04:36:19;;;;;;;15.05;9.27;;;10.50;99.90;;;;;;5129446;27;20483;-80
2023/12/28 04:38:45;;;;;;;13.55;8.23;;;10.50;99.90;;;;;;5099042;27;20545;-81
2023/12/28 04:41:11;;;;;;;11.77;8.82;;;10.50;99.90;;;;;;5097689;27;20054;-79
2023/12/28 04:43:38;;;;;;;14.23;8.70;;;10.50;99.90;;;;;;5111276;27;20134;-80
2023/12/28 04:46:06;;;;;;;16.52;9.23;;;10.60;99.90;;;;;;5128556;27;20500;-80
2023/12/28 04:48:32;;;;;;;12.77;8.00;;;10.60;99.90;;;;;;5119264;27;20046;-81
2023/12/28 04:50:58;;;;;;;12.63;8.35;;;10.50;99.90;;;;;;5112045;27;20403;-80
2023/12/28 04:53:23;;;;;;;15.10;8.57;;;10.60;99.90;;;;;;5123847;27;20051;-80
2023/12/28 04:55:49;;;;;;;22.70;19.73;;;10.60;99.90;;;;;;5119725;27;20039;-80
2023/12/28 04:58:15;;;;;;;15.93;11.10;;;10.60;99.90;;;;;;5107678;27;20529;-80
2023/12/28 05:00:41;;;;;;;13.93;8.52;;;10.70;99.90;;;;;;5118772;27;20125;-80
2023/12/28 05:03:06;;;;;;;11.05;7.97;;;10.70;99.90;;;;;;5120464;27;20122;-80
2023/12/28 05:05:32;;;;;;;13.30;11.20;;;10.70;99.90;;;;;;5099003;27;20067;-80
2023/12/28 05:07:58;;;;;;;12.80;8.35;;;10.70;99.90;;;;;;5106934;27;20070;-80
2023/12/28 05:10:24;;;;;;;72.70;30.65;;;10.70;99.90;;;;;;5136329;27;20459;-80
2023/12/28 05:12:49;;;;;;;12.38;8.90;;;10.70;99.90;;;;;;5139412;27;20039;-79
2023/12/28 05:15:15;;;;;;;12.00;10.02;;;10.70;99.90;;;;;;5114952;27;20062;-79
2023/12/28 05:17:41;;;;;;;12.63;8.27;;;10.70;99.90;;;;;;5132845;27;20043;-78
2023/12/28 05:20:07;;;;;;;12.45;9.10;;;10.70;99.90;;;;;;5097591;27;20027;-79
2023/12/28 05:22:33;;;;;;;13.73;8.68;;;10.70;99.90;;;;;;5110341;27;20142;-80
2023/12/28 05:24:58;;;;;;;12.57;8.20;;;10.70;99.90;;;;;;5110092;27;20126;-80
2023/12/28 05:27:24;;;;;;;17.15;8.98;;;10.70;99.90;;;;;;5116993;27;20334;-80
2023/12/28 05:29:50;;;;;;;11.90;8.18;;;10.80;99.90;;;;;;5116316;27;20051;-80
2023/12/28 05:32:15;;;;;;;15.95;8.15;;;10.80;99.90;;;;;;5114047;27;20034;-79
2023/12/28 05:34:41;;;;;;;53.15;27.77;;;10.80;99.90;;;;;;5100941;27;20042;-81
2023/12/28 05:37:07;;;;;;;15.13;9.07;;;10.80;99.90;;;;;;5113639;27;20039;-81
2023/12/28 05:39:32;;;;;;;17.08;10.65;;;10.90;99.90;;;;;;5115322;27;20078;-81
2023/12/28 05:41:58;;;;;;;12.65;9.07;;;10.90;99.90;;;;;;5118920;27;20060;-79
2023/12/28 05:44:23;;;;;;;20.10;8.48;;;10.90;99.90;;;;;;5101995;27;20525;-80
2023/12/28 05:46:49;;;;;;;16.58;8.00;;;11.00;99.90;;;;;;5107543;27;20038;-80
2023/12/28 05:49:15;;;;;;;13.32;7.88;;;11.00;99.90;;;;;;5124524;27;20047;-80
2023/12/28 05:51:41;;;;;;;16.70;9.27;;;10.90;99.90;;;;;;5116081;27;20444;-82
2023/12/28 05:54:09;;;;;;;16.88;9.70;;;10.90;99.90;;;;;;5130790;27;20081;-81
2023/12/28 05:56:35;;;;;;;9.57;7.88;;;10.80;99.90;;;;;;5096554;27;20126;-79
2023/12/28 05:59:01;;;;;;;18.10;9.25;;;10.80;99.90;;;;;;5115259;27;20546;-81
2023/12/28 06:01:27;;;;;;;17.85;10.30;;;10.70;99.90;;;;;;5124531;27;20142;-81
2023/12/28 06:03:53;;;;;;;20.58;15.95;;;10.70;99.90;;;;;;5115729;27;20033;-80
2023/12/28 06:06:20;;;;;;;12.10;8.20;;;10.60;99.90;;;;;;5100667;27;20034;-80
2023/12/28 06:08:46;;;;;;;16.98;9.02;;;10.60;99.90;;;;;;5112693;27;20039;-81
2023/12/28 06:11:11;;;;;;;12.32;8.55;;;10.60;99.90;;;;;;5101019;27;20111;-80
2023/12/28 06:13:37;;;;;;;17.25;12.70;;;10.60;99.90;;;;;;5111948;27;20130;-80
2023/12/28 06:16:03;;;;;;;12.68;8.57;;;10.70;99.90;;;;;;5101123;27;20097;-80
2023/12/28 06:18:28;;;;;;;14.45;8.65;;;10.70;99.90;;;;;;5125953;27;20042;-81
2023/12/28 06:20:55;;;;;;;13.70;8.40;;;10.70;99.90;;;;;;5127461;27;20039;-80
2023/12/28 06:23:20;;;;;;;14.52;8.23;;;10.70;99.90;;;;;;5096775;27;20085;-79
2023/12/28 06:25:46;;;;;;;17.02;9.35;;;10.70;99.90;;;;;;5101747;27;20066;-80
2023/12/28 06:28:12;;;;;;;14.77;8.27;;;10.80;99.90;;;;;;5112638;27;20031;-80
2023/12/28 06:30:39;;;;;;;17.38;8.55;;;10.70;99.90;;;;;;5094855;27;20566;-81
2023/12/28 06:33:05;;;;;;;17.30;15.02;;;10.70;99.90;;;;;;5118102;27;20050;-80
2023/12/28 06:35:30;;;;;;;17.98;8.82;;;10.70;99.90;;;;;;5137677;27;20047;-80
2023/12/28 06:37:56;;;;;;;19.17;9.05;;;10.70;99.90;;;;;;5118457;27;20792;-80
2023/12/28 06:40:22;;;;;;;18.13;9.13;;;10.70;99.90;;;;;;5103303;27;20043;-80
2023/12/28 06:42:48;;;;;;;22.30;9.25;;;10.80;99.90;;;;;;5139083;27;20110;-81
2023/12/28 06:45:14;;;;;;;20.20;8.88;;;10.80;99.90;;;;;;5127506;27;20030;-80
2023/12/28 06:47:39;;;;;;;15.00;8.25;;;10.80;99.90;;;;;;5109697;27;20038;-81
2023/12/28 06:50:05;;;;;;;14.60;8.30;;;10.80;99.90;;;;;;5111958;27;20039;-81
2023/12/28 06:52:31;;;;;;;15.88;8.60;;;10.80;99.90;;;;;;5099564;27;20087;-80
2023/12/28 06:54:57;;;;;;;13.45;8.48;;;10.80;99.90;;;;;;5119835;27;20039;-80
2023/12/28 06:57:22;;;;;;;13.70;8.30;;;10.80;99.90;;;;;;5118374;27;20157;-80
2023/12/28 06:59:48;;;;;;;14.30;8.50;;;10.80;99.90;;;;;;5139640;27;20054;-80
2023/12/28 07:02:14;;;;;;;11.65;7.93;;;10.80;99.90;;;;;;5104870;27;20048;-78
2023/12/28 07:04:39;;;;;;;17.13;10.50;;;10.90;99.90;;;;;;5108030;27;20046;-80
2023/12/28 07:07:05;;;;;;;19.00;8.63;;;10.90;99.90;;;;;;5138462;27;20088;-80
2023/12/28 07:09:31;;;;;;;18.30;8.50;;;10.90;99.90;;;;;;5094574;27;20035;-80
2023/12/28 07:11:56;;;;;;;23.88;8.82;;;10.90;99.90;;;;;;5106549;27;20641;-80
2023/12/28 07:14:22;;;;;;;18.58;9.23;;;10.90;99.90;;;;;;5119156;27;20066;-80
2023/12/28 07:16:47;;;;;;;19.95;8.40;;;10.90;99.90;;;;;;5127528;27;20035;-81
2023/12/28 07:19:13;;;;;;;15.48;9.30;;;10.80;99.90;;;;;;5107886;27;20045;-81
2023/12/28 07:21:38;;;;;;;16.88;9.00;;;10.80;99.90;;;;;;5093539;27;20123;-80
2023/12/28 07:24:05;;;;;;;19.23;9.13;;;10.80;99.90;;;;;;5117784;27;20114;-79
2023/12/28 07:26:30;;;;;;;17.27;9.23;;;10.70;99.90;;;;;;5110755;27;20039;-79
2023/12/28 07:28:56;;;;;;;16.67;8.18;;;10.70;99.90;;;;;;5096954;27;20479;-80
2023/12/28 07:31:26;;;;;;;271.70;86.22;;;10.70;99.90;;;;;;5115249;27;20035;-81
2023/12/28 07:33:52;;;;;;;18.42;8.88;;;10.80;99.90;;;;;;5107295;27;20049;-80
2023/12/28 07:36:17;;;;;;;25.85;11.60;;;10.80;99.90;;;;;;5120982;27;20117;-79
2023/12/28 07:38:44;;;;;;;23.55;14.50;;;10.80;99.90;;;;;;5100719;27;20043;-80
2023/12/28 07:41:09;;;;;;;17.50;10.48;;;10.80;99.90;;;;;;5140672;27;20035;-80
2023/12/28 07:43:36;;;;;;;30.73;17.33;;;10.80;99.90;;;;;;5109061;27;20057;-79
2023/12/28 07:46:02;;;;;;;22.35;9.75;;;10.90;99.90;;;;;;5101949;27;20062;-81
2023/12/28 07:48:30;;;;;;;21.55;9.85;;;10.90;99.90;;;;;;5122820;27;20027;-80
2023/12/28 07:50:56;;;;;;;15.75;8.57;;;11.00;99.90;;;;;;5102705;28;20040;-80
2023/12/28 07:53:22;;;;;;;25.25;17.98;;;11.00;99.90;;;;;;5101585;27;20034;-81
2023/12/28 07:55:47;;;;;;;25.77;10.60;;;11.00;99.90;;;;;;5112050;28;20097;-80
2023/12/28 07:58:13;;;;;;;22.17;9.35;;;11.00;99.90;;;;;;5107591;27;20031;-80
2023/12/28 08:00:38;;;;;;;20.00;9.10;;;11.10;99.90;;;;;;5116079;28;20039;-81
2023/12/28 08:03:04;;;;;;;16.80;9.25;;;11.10;99.90;;;;;;5097155;27;20046;-81
2023/12/28 08:05:30;;;;;;;21.05;10.20;;;11.10;99.90;;;;;;5116261;27;20039;-80
2023/12/28 08:07:55;;;;;;;20.55;8.63;;;11.10;99.90;;;;;;5133727;27;20062;-81
2023/12/28 08:10:21;;;;;;;18.67;9.10;;;11.10;99.90;;;;;;5109987;27;20035;-80
2023/12/28 08:12:46;;;;;;;14.73;8.70;;;11.20;99.90;;;;;;5098292;27;20138;-80
2023/12/28 08:15:12;;;;;;;29.55;10.85;;;11.20;99.90;;;;;;5098812;28;20078;-79
2023/12/28 08:17:38;;;;;;;25.15;9.52;;;11.20;99.90;;;;;;5097573;27;20387;-80
2023/12/28 08:20:05;;;;;;;19.55;9.10;;;11.20;99.90;;;;;;5127494;27;20550;-80
2023/12/28 08:22:31;;;;;;;22.05;9.68;;;11.20;99.90;;;;;;5111517;27;20062;-81
2023/12/28 08:24:57;;;;;;;23.95;9.65;;;11.20;99.90;;;;;;5116010;27;20513;-81
2023/12/28 08:27:23;;;;;;;20.63;9.13;;;11.20;99.90;;;;;;5101032;27;20471;-81
2023/12/28 08:29:49;;;;;;;23.70;9.05;;;11.30;99.90;;;;;;5101170;27;20081;-80
2023/12/28 08:32:14;;;;;;;20.50;8.68;;;11.30;99.90;;;;;;5118091;27;20050;-80
2023/12/28 08:34:40;;;;;;;20.17;10.52;;;11.20;99.90;;;;;;5114701;27;20130;-80
2023/12/28 08:37:09;;;;;;;27.08;9.57;;;11.20;99.90;;;;;;5134670;27;20091;-81
2023/12/28 08:39:34;;;;;;;22.60;10.60;;;11.20;99.90;;;;;;5118630;27;20051;-80
2023/12/28 08:42:00;;;;;;;178.13;67.93;;;11.20;99.90;;;;;;5103934;27;20042;-79
2023/12/28 08:44:26;;;;;;;170.25;72.35;;;11.20;99.90;;;;;;5100234;27;20443;-80
2023/12/28 08:46:51;;;;;;;27.63;8.80;;;11.30;99.90;;;;;;5121812;27;20099;-79
2023/12/28 08:49:17;;;;;;;25.42;9.63;;;11.30;99.90;;;;;;5100365;27;20495;-78
2023/12/28 08:51:43;;;;;;;26.67;9.75;;;11.30;99.90;;;;;;5120672;27;20039;-80
2023/12/28 08:54:09;;;;;;;22.17;9.90;;;11.30;99.90;;;;;;5142667;27;20035;-81
2023/12/28 08:56:35;;;;;;;25.75;9.20;;;11.30;99.90;;;;;;5122702;27;20440;-81
2023/12/28 08:59:01;;;;;;;24.90;9.38;;;11.30;99.90;;;;;;5135030;27;20071;-80
2023/12/28 09:01:26;;;;;;;33.30;17.00;;;11.40;99.90;;;;;;5097936;27;20096;-80
2023/12/28 09:03:56;;;;;;;24.52;10.57;;;11.40;99.90;;;;;;5105188;27;20768;-79
2023/12/28 09:06:22;;;;;;;23.80;9.32;;;11.40;99.90;;;;;;5124057;27;20045;-80
2023/12/28 09:08:50;;;;;;;19.02;9.50;;;11.40;99.90;;;;;;5115945;27;20030;-80
2023/12/28 09:11:16;;;;;;;22.23;9.13;;;11.40;99.90;;;;;;5137395;27;20034;-80
2023/12/28 09:13:42;;;;;;;19.85;8.85;;;11.40;99.90;;;;;;5099678;27;20058;-80
2023/12/28 09:16:10;;;;;;;18.52;9.07;;;11.30;99.90;;;;;;5117327;27;20042;-80
2023/12/28 09:18:37;;;;;;;30.58;13.70;;;11.40;99.90;;;;;;5117765;27;20043;-79
2023/12/28 09:21:04;;;;;;;21.83;9.65;;;11.40;99.90;;;;;;5116248;27;20066;-78
2023/12/28 09:23:34;;;;;;;22.15;8.25;;;11.40;99.90;;;;;;5140293;27;20122;-81
2023/12/28 09:26:04;;;;;;;63.13;18.75;;;11.40;99.90;;;;;;5114108;27;20129;-81
2023/12/28 09:28:30;;;;;;;25.92;8.95;;;11.40;99.90;;;;;;5140586;27;20027;-83
2023/12/28 09:30:56;;;;;;;21.73;8.13;;;11.40;99.90;;;;;;5112269;27;20114;-79
2023/12/28 09:33:22;;;;;;;19.58;11.65;;;11.50;99.90;;;;;;5096214;27;20114;-80
2023/12/28 09:35:48;;;;;;;23.95;8.75;;;11.50;99.90;;;;;;5118821;27;20042;-80
2023/12/28 09:38:14;;;;;;;23.70;8.32;;;11.40;99.90;;;;;;5100976;27;20129;-80
2023/12/28 09:40:43;;;;;;;22.50;10.20;;;11.40;99.90;;;;;;5105790;27;20053;-80
2023/12/28 09:43:19;;;;;;;22.42;8.52;;;11.40;99.90;;;;;;5122075;27;20142;-80
2023/12/28 09:45:48;;;;;;;22.80;8.60;;;11.40;99.90;;;;;;5101513;27;20494;-81
2023/12/28 09:48:18;;;;;;;21.02;9.00;;;11.30;99.90;;;;;;5123059;27;20049;-79
2023/12/28 09:50:50;;;;;;;18.42;9.10;;;11.30;99.90;;;;;;5147273;27;20046;-79
2023/12/28 09:53:16;;;;;;;24.13;8.90;;;11.30;99.90;;;;;;5138048;27;20038;-81
2023/12/28 09:55:43;;;;;;;23.33;8.38;;;11.40;99.90;;;;;;5101046;27;20034;-81
2023/12/28 09:58:12;;;;;;;21.27;8.13;;;11.30;99.90;;;;;;5101255;27;20126;-81
2023/12/28 10:00:38;;;;;;;21.00;9.52;;;11.30;99.90;;;;;;5120050;27;20183;-80
2023/12/28 10:03:04;;;;;;;21.70;10.95;;;11.30;99.90;;;;;;5105631;27;20122;-80
2023/12/28 10:05:30;;;;;;;24.05;9.38;;;11.30;99.90;;;;;;5107271;27;20825;-79
2023/12/28 10:07:57;;;;;;;25.63;9.55;;;11.30;99.90;;;;;;5129773;27;20038;-80
2023/12/28 10:10:22;;;;;;;21.95;12.02;;;11.30;99.90;;;;;;5145977;27;20406;-79
2023/12/28 10:12:48;;;;;;;23.90;8.68;;;11.40;99.90;;;;;;5140167;27;20034;-79
2023/12/28 10:15:14;;;;;;;23.05;9.52;;;11.40;99.90;;;;;;5108260;27;20049;-78
2023/12/28 10:17:39;;;;;;;23.42;9.48;;;11.40;99.90;;;;;;5109386;27;20412;-80
2023/12/28 10:20:09;;;;;;;26.27;9.23;;;11.40;99.90;;;;;;5123866;27;20175;-81
2023/12/28 10:22:36;;;;;;;22.92;8.25;;;11.50;99.90;;;;;;5136551;27;20086;-80
2023/12/28 10:25:06;;;;;;;21.02;8.48;;;11.40;99.90;;;;;;5116048;27;20043;-79
2023/12/28 10:27:32;;;;;;;20.88;8.40;;;11.50;99.90;;;;;;5136826;27;20030;-81
2023/12/28 10:29:58;;;;;;;22.98;9.13;;;11.40;99.90;;;;;;5102021;27;20035;-80
2023/12/28 10:32:24;;;;;;;19.85;11.63;;;11.40;99.90;;;;;;5116014;27;20035;-80
2023/12/28 10:34:53;;;;;;;20.05;9.85;;;11.50;99.90;;;;;;5123132;27;20103;-80
2023/12/28 10:37:21;;;;;;;24.15;9.82;;;11.50;99.90;;;;;;5121845;27;20039;-81
2023/12/28 10:39:49;;;;;;;24.38;9.05;;;11.50;99.90;;;;;;5099142;27;20047;-81
2023/12/28 10:42:29;;;;;;;21.60;8.50;;;11.50;99.90;;;;;;5141805;27;20130;-80
2023/12/28 10:45:09;;;;;;;21.23;8.57;;;11.50;99.90;;;;;;5125315;27;20122;-80
2023/12/28 10:47:43;;;;;;;21.85;8.77;;;11.50;99.90;;;;;;5123592;27;20070;-81
2023/12/28 10:50:11;;;;;;;18.45;8.45;;;11.50;99.90;;;;;;5120705;27;20031;-81
2023/12/28 10:52:39;;;;;;;17.38;8.27;;;11.60;99.90;;;;;;5105423;27;20042;-80
2023/12/28 10:55:21;;;;;;;24.60;9.43;;;11.50;99.90;;;;;;5137529;27;20038;-81
2023/12/28 10:57:59;;;;;;;20.50;8.60;;;11.50;99.90;;;;;;5139279;27;20039;-79
2023/12/28 11:00:30;;;;;;;13.95;8.13;;;11.50;99.90;;;;;;5109181;27;20043;-80
2023/12/28 11:03:02;;;;;;;21.08;9.00;;;11.50;99.90;;;;;;5098081;27;20093;-81
2023/12/28 11:05:29;;;;;;;20.15;9.25;;;11.50;99.90;;;;;;5133343;27;20034;-79
2023/12/28 11:07:58;;;;;;;20.02;9.00;;;11.50;99.90;;;;;;5101353;27;20035;-80
2023/12/28 11:10:24;;;;;;;22.02;8.90;;;11.50;99.90;;;;;;5103913;27;20035;-80
2023/12/28 11:12:54;;;;;;;22.33;9.30;;;11.50;99.90;;;;;;5146319;27;20118;-81
2023/12/28 11:15:20;;;;;;;21.80;11.50;;;11.50;99.90;;;;;;5096262;27;20509;-81
2023/12/28 11:17:46;;;;;;;21.75;11.30;;;11.50;99.90;;;;;;5118341;27;20393;-81
2023/12/28 11:20:16;;;;;;;20.83;8.63;;;11.50;99.90;;;;;;5123370;27;20045;-81
2023/12/28 11:22:44;;;;;;;16.50;8.60;;;11.50;99.90;;;;;;5113319;27;20047;-82
2023/12/28 11:25:16;;;;;;;24.08;9.48;;;11.60;99.90;;;;;;5112718;27;20051;-82
2023/12/28 11:27:42;;;;;;;18.77;10.10;;;11.50;99.90;;;;;;5114910;27;20087;-81
2023/12/28 11:30:31;;;;;;;23.52;9.00;;;11.60;99.90;;;;;;5097239;27;20035;-81
2023/12/28 11:33:00;;;;;;;16.77;9.65;;;11.50;99.90;;;;;;5097060;28;20040;-81
2023/12/28 11:35:40;;;;;;;18.90;8.88;;;11.50;99.90;;;;;;5092250;28;20194;-82
2023/12/28 11:38:11;;;;;;;21.73;9.55;;;11.40;99.90;;;;;;5105597;28;20049;-81
2023/12/28 11:40:44;;;;;;;27.00;18.67;;;11.30;99.90;;;;;;5092065;28;20491;-81
2023/12/28 11:43:19;;;;;;;26.08;10.23;;;11.20;99.90;;;;;;5117924;28;20060;-81
2023/12/28 11:45:54;;;;;;;25.90;14.23;;;11.10;99.90;;;;;;5108960;28;20774;-79
2023/12/28 11:48:27;;;;;;;18.65;9.52;;;11.10;99.90;;;;;;5096593;28;20062;-81
2023/12/28 11:50:58;;;;;;;18.63;9.48;;;11.10;99.90;;;;;;5123137;28;20110;-81
2023/12/28 11:53:25;;;;;;;18.98;8.45;;;11.20;99.90;;;;;;5124360;27;20039;-82
2023/12/28 11:55:52;;;;;;;19.67;9.00;;;11.20;99.90;;;;;;5120148;27;20387;-81
2023/12/28 11:58:18;;;;;;;22.88;8.88;;;11.20;99.90;;;;;;5103775;27;20410;-84
2023/12/28 12:00:44;;;;;;;22.35;9.45;;;11.30;99.90;;;;;;5129372;27;20039;-83
2023/12/28 12:03:13;;;;;;;24.48;16.38;;;11.20;99.90;;;;;;5110055;27;20058;-80
2023/12/28 12:05:40;;;;;;;19.13;8.95;;;11.30;99.90;;;;;;5096203;27;20074;-81
2023/12/28 12:08:08;;;;;;;27.20;9.07;;;11.30;99.90;;;;;;5122835;27;20066;-81
2023/12/28 12:10:35;;;;;;;26.55;9.70;;;11.30;99.90;;;;;;5120319;27;20121;-79
2023/12/28 12:13:02;;;;;;;23.95;9.27;;;11.30;99.90;;;;;;5126136;27;20046;-81
2023/12/28 12:15:29;;;;;;;25.38;10.07;;;11.20;99.90;;;;;;5116524;27;20035;-79
2023/12/28 12:17:54;;;;;;;13.20;10.27;;;11.20;99.90;;;;;;5106890;28;20031;-80
2023/12/28 12:20:20;;;;;;;21.73;9.45;;;11.20;99.90;;;;;;5107108;27;20058;-81
2023/12/28 12:22:46;;;;;;;22.65;10.05;;;11.10;99.90;;;;;;5119613;27;20048;-81
2023/12/28 12:25:12;;;;;;;20.42;9.75;;;11.10;99.90;;;;;;5104807;27;20043;-82
2023/12/28 12:27:38;;;;;;;23.27;9.48;;;11.10;99.90;;;;;;5124157;27;20156;-79
2023/12/28 12:30:04;;;;;;;25.05;10.02;;;11.10;99.90;;;;;;5093501;27;20036;-80
2023/12/28 12:32:31;;;;;;;24.40;11.65;;;11.20;99.90;;;;;;5110243;27;20031;-81
2023/12/28 12:34:57;;;;;;;19.58;8.98;;;11.20;99.90;;;;;;5099827;27;20047;-80